Metar z połowy godziny Komunikat METAR ze strony awiacja.imgw.pl Metar G30 EPPR METAR EPPR 170900Z 15006KT CAVOK 25/14 Q1018 RMK 251 049 0/0=